Terminal Aerodrome Forecast
Issued by NWS

Current Version | Previous Version | Text Only | Print | Product List | Glossary On
Versions: 1 2 3 4 5 6 7 8 9 10 11 12 13 14
003
FTUS45 KRIW 082327
TAFJAC
TAF
KJAC 082327Z 0900/0924 VRB05KT P6SM SCT200
     FM090100 VRB05KT P6SM FEW200
     FM090700 VRB04KT P6SM VCFG SCT005
     FM091600 VRB05KT P6SM FEW005
      AMD LTD TO CLD VIS AND WIND=

USA.gov is the U.S. government's official web portal to all federal, state and local government web resources and services.